Time;durP1;ratioP1;P1;durP2;ratioP2;P2;SDS_P1;SDS_P2;PMS_P1;PMS_P2;Temp;Humidity;BMP_temperature;BMP_pressure;BME280_temperature;BME280_humidity;BME280_pressure;Samples;Min_cycle;Max_cycle;Signal;HPM_P1;HPM_P2
2024/03/24 00:02:24;;;;;;;14.40;8.40;;;;;;;10.29;100.00;99835.20;105868;1254;74621;-80
2024/03/24 00:04:51;;;;;;;15.30;8.80;;;;;;;10.29;100.00;99831.16;105966;1257;68977;-75
2024/03/24 00:07:19;;;;;;;13.50;7.50;;;;;;;10.29;100.00;99824.99;105874;1256;71407;-75
2024/03/24 00:09:51;;;;;;;16.00;8.80;;;;;;;10.28;100.00;99820.45;106214;1254;61362;-80
2024/03/24 00:12:18;;;;;;;14.80;7.80;;;;;;;10.26;100.00;99822.71;106696;1253;61312;-81
2024/03/24 00:14:46;;;;;;;14.30;8.80;;;;;;;10.25;100.00;99823.16;105796;1253;73418;-77
2024/03/24 00:17:13;;;;;;;14.40;8.00;;;;;;;10.23;100.00;99819.48;105807;1253;67119;-75
2024/03/24 00:19:41;;;;;;;13.90;8.40;;;;;;;10.24;100.00;99819.23;105951;1256;72366;-80
2024/03/24 00:22:09;;;;;;;14.60;7.80;;;;;;;10.25;100.00;99811.42;105825;1253;61290;-76
2024/03/24 00:24:36;;;;;;;14.60;8.50;;;;;;;10.18;100.00;99807.50;105803;1253;61190;-80
2024/03/24 00:27:04;;;;;;;16.40;8.00;;;;;;;10.21;100.00;99802.23;106307;1253;73468;-76
2024/03/24 00:29:31;;;;;;;15.60;8.70;;;;;;;10.21;100.00;99803.61;105921;1253;67159;-75
2024/03/24 00:31:59;;;;;;;14.90;8.60;;;;;;;10.22;100.00;99801.89;106844;1257;72046;-80
2024/03/24 00:34:27;;;;;;;13.90;8.40;;;;;;;10.22;100.00;99802.34;105853;1254;61441;-75
2024/03/24 00:36:54;;;;;;;16.40;8.00;;;;;;;10.18;100.00;99802.60;105767;1253;61195;-80
2024/03/24 00:39:22;;;;;;;13.20;8.00;;;;;;;10.13;100.00;99798.51;105935;1257;73469;-80
2024/03/24 00:41:49;;;;;;;14.70;8.40;;;;;;;10.11;100.00;99792.97;105969;1253;68491;-75
2024/03/24 00:44:17;;;;;;;14.80;8.50;;;;;;;10.08;100.00;99787.89;105973;1253;72645;-75
2024/03/24 00:46:44;;;;;;;14.60;8.80;;;;;;;10.06;100.00;99789.15;107243;1254;61366;-76
2024/03/24 00:49:12;;;;;;;15.50;8.20;;;;;;;10.05;100.00;99783.55;105804;1257;61306;-80
2024/03/24 00:51:42;;;;;;;14.10;8.30;;;;;;;10.04;100.00;99775.91;105890;1253;74645;-75
2024/03/24 00:54:10;;;;;;;17.30;9.10;;;;;;;10.00;100.00;99771.00;105983;1259;68379;-75
2024/03/24 00:56:38;;;;;;;14.80;8.90;;;;;;;9.99;100.00;99768.29;105803;1257;71540;-75
2024/03/24 00:59:05;;;;;;;14.40;8.80;;;;;;;9.96;100.00;99758.27;105654;1256;61249;-80
2024/03/24 01:01:33;;;;;;;17.20;9.60;;;;;;;9.96;100.00;99758.12;105887;1258;61211;-75
2024/03/24 01:04:00;;;;;;;14.40;8.70;;;;;;;9.92;100.00;99750.20;105621;1253;74620;-80
2024/03/24 01:06:28;;;;;;;18.10;9.50;;;;;;;9.90;100.00;99744.77;106541;1259;67114;-75
2024/03/24 01:08:56;;;;;;;13.60;8.30;;;;;;;9.88;100.00;99739.05;105899;1254;70671;-75
2024/03/24 01:11:23;;;;;;;15.00;9.30;;;;;;;9.90;100.00;99735.59;105859;1254;61339;-80
2024/03/24 01:13:51;;;;;;;14.00;8.40;;;;;;;9.88;100.00;99736.64;105915;1259;61276;-75
2024/03/24 01:16:18;;;;;;;18.80;9.00;;;;;;;9.85;100.00;99730.08;105976;1259;76049;-75
2024/03/24 01:18:46;;;;;;;17.10;9.60;;;;;;;9.85;100.00;99727.52;105967;1257;67449;-80
2024/03/24 01:21:13;;;;;;;19.80;10.10;;;;;;;9.82;100.00;99727.34;107050;1254;71435;-80
2024/03/24 01:23:41;;;;;;;17.00;9.90;;;;;;;9.79;100.00;99726.34;105978;1253;61726;-80
2024/03/24 01:26:09;;;;;;;16.60;9.70;;;;;;;9.83;100.00;99720.06;105838;1253;61292;-80
2024/03/24 01:28:36;;;;;;;16.40;9.20;;;;;;;9.82;100.00;99719.20;106127;1259;74691;-80
2024/03/24 01:31:04;;;;;;;17.00;9.60;;;;;;;9.79;100.00;99718.75;105808;1257;67488;-80
2024/03/24 01:33:32;;;;;;;15.30;9.30;;;;;;;9.78;100.00;99713.63;105710;1257;72791;-80
2024/03/24 01:35:59;;;;;;;18.30;9.50;;;;;;;9.73;100.00;99716.53;106501;1254;61218;-80
2024/03/24 01:38:27;;;;;;;17.70;10.40;;;;;;;9.72;100.00;99712.66;106830;1253;61282;-80
2024/03/24 01:40:54;;;;;;;17.60;9.90;;;;;;;9.71;100.00;99718.75;106004;1253;74703;-80
2024/03/24 01:43:22;;;;;;;15.30;8.80;;;;;;;9.68;100.00;99718.39;105890;1254;67284;-75
2024/03/24 01:45:50;;;;;;;16.60;10.20;;;;;;;9.70;100.00;99715.80;105858;1254;73466;-76
2024/03/24 01:48:17;;;;;;;16.60;10.20;;;;;;;9.65;100.00;99710.80;105883;1257;61301;-80
2024/03/24 01:50:45;;;;;;;16.70;10.00;;;;;;;9.60;100.00;99711.61;105802;1259;61338;-76
2024/03/24 01:53:13;;;;;;;18.60;9.70;;;;;;;9.55;100.00;99706.66;106097;1259;75098;-80
2024/03/24 01:55:40;;;;;;;17.30;9.60;;;;;;;9.53;100.00;99705.04;106341;1259;67135;-80
2024/03/24 01:58:10;;;;;;;15.50;9.40;;;;;;;9.50;100.00;99700.19;106079;1259;71399;-75
2024/03/24 02:00:37;;;;;;;19.90;10.50;;;;;;;9.47;100.00;99701.08;106065;1258;61350;-76
2024/03/24 02:03:05;;;;;;;17.70;9.60;;;;;;;9.49;100.00;99698.81;105921;1258;61973;-80
2024/03/24 02:05:32;;;;;;;15.90;9.30;;;;;;;9.48;100.00;99696.52;105924;1254;74597;-76
2024/03/24 02:08:00;;;;;;;16.70;9.70;;;;;;;9.45;100.00;99697.70;106132;1254;68495;-76
2024/03/24 02:10:28;;;;;;;15.70;9.40;;;;;;;9.46;100.00;99697.91;105868;1259;71455;-75
2024/03/24 02:12:56;;;;;;;16.10;9.10;;;;;;;9.45;100.00;99697.27;105867;1256;61337;-76
2024/03/24 02:15:23;;;;;;;15.40;9.20;;;;;;;9.44;100.00;99696.58;105980;1259;61196;-76
2024/03/24 02:17:51;;;;;;;16.20;9.10;;;;;;;9.42;100.00;99695.02;105806;1254;73511;-80
2024/03/24 02:20:26;;;;;;;16.90;9.20;;;;;;;9.42;100.00;99687.06;105751;1253;68898;-80
2024/03/24 02:22:54;;;;;;;19.30;10.20;;;;;;;9.40;100.00;99688.93;106542;1255;72705;-80
2024/03/24 02:25:22;;;;;;;20.10;10.00;;;;;;;9.40;100.00;99692.64;105886;1253;61169;-80
2024/03/24 02:27:49;;;;;;;19.80;9.70;;;;;;;9.41;100.00;99685.52;106122;1253;62918;-80
2024/03/24 02:30:17;;;;;;;14.50;8.20;;;;;;;9.42;100.00;99684.27;105911;1254;73367;-76
2024/03/24 02:32:44;;;;;;;18.10;8.60;;;;;;;9.44;100.00;99684.14;105982;1258;67170;-75
2024/03/24 02:35:13;;;;;;;16.40;9.60;;;;;;;9.42;100.00;99681.65;106008;1254;71498;-80
2024/03/24 02:37:41;;;;;;;16.80;8.60;;;;;;;9.41;100.00;99676.86;106521;1253;61458;-80
2024/03/24 02:40:09;;;;;;;15.40;8.50;;;;;;;9.39;100.00;99677.01;106941;1259;61349;-76
2024/03/24 02:42:36;;;;;;;17.40;9.10;;;;;;;9.35;100.00;99673.23;105977;1259;74783;-76
2024/03/24 02:45:06;;;;;;;17.40;9.40;;;;;;;9.38;100.00;99672.10;105972;1256;67247;-75
2024/03/24 02:47:33;;;;;;;16.30;9.10;;;;;;;9.37;100.00;99672.23;105937;1254;70990;-75
2024/03/24 02:50:01;;;;;;;18.30;8.70;;;;;;;9.34;100.00;99665.11;106422;1254;61279;-80
2024/03/24 02:52:29;;;;;;;17.60;9.40;;;;;;;9.32;100.00;99664.16;105766;1260;61400;-80
2024/03/24 02:54:56;;;;;;;17.40;9.80;;;;;;;9.33;100.00;99664.80;105664;1258;74631;-80
2024/03/24 02:57:24;;;;;;;15.70;8.90;;;;;;;9.33;100.00;99670.98;106620;1258;68900;-80
2024/03/24 02:59:51;;;;;;;16.40;9.40;;;;;;;9.33;100.00;99665.35;105943;1253;71513;-76
2024/03/24 03:02:19;;;;;;;16.30;9.40;;;;;;;9.32;100.00;99663.52;106098;1255;62275;-76
2024/03/24 03:04:47;;;;;;;18.40;9.80;;;;;;;9.29;100.00;99667.25;105858;1253;61351;-76
2024/03/24 03:07:14;;;;;;;18.00;9.50;;;;;;;9.25;100.00;99668.33;105856;1259;74636;-76
2024/03/24 03:09:42;;;;;;;17.00;8.90;;;;;;;9.23;100.00;99662.91;105897;1254;68363;-80
2024/03/24 03:12:09;;;;;;;16.70;9.30;;;;;;;9.21;100.00;99657.35;105734;1254;72743;-80
2024/03/24 03:14:37;;;;;;;19.50;9.90;;;;;;;9.17;100.00;99651.30;106527;1254;61337;-80
2024/03/24 03:17:05;;;;;;;18.90;10.40;;;;;;;9.11;100.00;99649.57;105945;1253;61250;-76
2024/03/24 03:19:33;;;;;;;18.00;10.00;;;;;;;9.08;100.00;99651.17;105899;1257;74633;-76
2024/03/24 03:22:01;;;;;;;17.40;9.70;;;;;;;9.06;100.00;99652.23;105915;1254;66709;-76
2024/03/24 03:24:28;;;;;;;17.80;10.20;;;;;;;9.05;100.00;99644.84;105822;1256;72749;-76
2024/03/24 03:26:56;;;;;;;18.10;10.00;;;;;;;9.02;100.00;99643.38;105788;1254;61429;-77
2024/03/24 03:29:24;;;;;;;19.20;9.40;;;;;;;9.02;100.00;99641.25;105894;1254;61307;-80
2024/03/24 03:31:51;;;;;;;19.60;10.20;;;;;;;9.00;100.00;99636.42;105840;1257;73390;-77
2024/03/24 03:34:19;;;;;;;17.00;10.10;;;;;;;8.98;100.00;99640.30;105696;1253;67098;-76
2024/03/24 03:36:46;;;;;;;18.60;10.30;;;;;;;8.98;100.00;99639.66;106382;1258;71418;-80
2024/03/24 03:39:14;;;;;;;14.70;9.00;;;;;;;8.93;100.00;99640.32;106040;1254;61170;-80
2024/03/24 03:41:43;;;;;;;15.50;9.10;;;;;;;8.92;100.00;99636.46;105958;1257;61304;-80
2024/03/24 03:44:11;;;;;;;17.30;9.50;;;;;;;8.95;100.00;99639.97;105810;1253;73921;-76
2024/03/24 03:46:40;;;;;;;16.10;9.50;;;;;;;8.96;100.00;99641.44;105756;1257;67171;-80
2024/03/24 03:49:08;;;;;;;23.00;10.20;;;;;;;8.94;100.00;99641.40;105706;1256;71409;-75
2024/03/24 03:51:39;;;;;;;18.00;9.50;;;;;;;8.89;100.00;99640.85;105831;1259;61353;-75
2024/03/24 03:54:10;;;;;;;17.10;9.00;;;;;;;8.91;100.00;99633.09;105874;1258;61230;-76
2024/03/24 03:56:41;;;;;;;17.80;9.50;;;;;;;8.91;100.00;99633.96;106344;1259;74591;-76
2024/03/24 03:59:09;;;;;;;17.70;10.00;;;;;;;8.89;100.00;99631.36;106091;1253;68431;-76
2024/03/24 04:01:36;;;;;;;16.90;9.70;;;;;;;8.87;100.00;99633.67;106057;1259;70584;-81
2024/03/24 04:04:04;;;;;;;18.40;9.20;;;;;;;8.86;100.00;99633.19;105980;1259;61739;-76
2024/03/24 04:06:31;;;;;;;18.80;8.90;;;;;;;8.87;100.00;99631.82;105835;1259;61260;-76
2024/03/24 04:09:00;;;;;;;18.20;9.60;;;;;;;8.85;100.00;99632.48;105883;1254;74663;-76
2024/03/24 04:11:28;;;;;;;17.30;9.80;;;;;;;8.84;100.00;99633.59;106341;1254;68625;-80
2024/03/24 04:13:56;;;;;;;17.40;9.40;;;;;;;8.82;100.00;99632.80;106107;1259;70572;-76
2024/03/24 04:16:23;;;;;;;17.90;9.50;;;;;;;8.78;100.00;99629.13;105891;1253;61758;-80
2024/03/24 04:18:51;;;;;;;19.20;10.00;;;;;;;8.74;100.00;99632.50;106027;1257;61352;-80
2024/03/24 04:21:19;;;;;;;15.50;8.90;;;;;;;8.73;100.00;99628.46;105841;1254;74671;-81
2024/03/24 04:23:46;;;;;;;16.40;9.00;;;;;;;8.73;100.00;99628.25;105919;1259;68355;-76
2024/03/24 04:26:14;;;;;;;16.00;9.10;;;;;;;8.75;100.00;99624.75;106428;1259;72705;-77
2024/03/24 04:28:41;;;;;;;15.50;9.00;;;;;;;8.80;100.00;99631.30;105797;1259;61231;-80
2024/03/24 04:31:09;;;;;;;17.90;10.10;;;;;;;8.81;100.00;99624.90;105826;1260;61254;-76
2024/03/24 04:33:37;;;;;;;16.00;8.70;;;;;;;8.83;100.00;99626.85;105940;1253;74210;-75
2024/03/24 04:36:05;;;;;;;15.00;8.60;;;;;;;8.82;100.00;99628.16;105872;1259;67415;-76
2024/03/24 04:38:32;;;;;;;15.20;8.70;;;;;;;8.84;100.00;99626.88;105722;1259;71691;-76
2024/03/24 04:41:00;;;;;;;16.40;8.70;;;;;;;8.85;100.00;99622.74;105903;1259;61231;-80
2024/03/24 04:43:28;;;;;;;15.90;8.80;;;;;;;8.84;100.00;99624.16;105842;1259;198613;-80
2024/03/24 04:45:56;;;;;;;18.60;9.70;;;;;;;8.83;100.00;99621.73;105868;1253;73349;-80
2024/03/24 04:48:24;;;;;;;16.70;9.10;;;;;;;8.85;100.00;99621.81;105937;1254;68296;-75
2024/03/24 04:50:56;;;;;;;17.70;8.80;;;;;;;8.88;100.00;99623.10;106097;1253;72688;-80
2024/03/24 04:53:26;;;;;;;14.70;8.70;;;;;;;8.86;100.00;99618.85;105892;1256;62580;-80
2024/03/24 04:55:54;;;;;;;15.60;7.90;;;;;;;8.84;100.00;99612.17;106890;1259;61140;-80
2024/03/24 04:58:22;;;;;;;13.90;7.70;;;;;;;8.85;100.00;99609.27;105913;1259;74689;-80
2024/03/24 05:00:49;;;;;;;14.60;8.20;;;;;;;8.93;100.00;99606.75;105928;1254;68370;-80
2024/03/24 05:03:17;;;;;;;15.00;8.20;;;;;;;8.99;100.00;99606.57;105967;1257;72690;-81
2024/03/24 05:05:49;;;;;;;16.70;9.00;;;;;;;9.03;100.00;99606.26;105887;1254;61249;-80
2024/03/24 05:08:17;;;;;;;13.90;8.00;;;;;;;9.05;100.00;99600.79;105814;1253;61558;-80
2024/03/24 05:10:44;;;;;;;12.60;7.20;;;;;;;9.07;100.00;99596.84;106319;1253;74675;-80
2024/03/24 05:13:12;;;;;;;14.50;7.80;;;;;;;9.12;100.00;99595.20;105995;1254;67124;-80
2024/03/24 05:15:40;;;;;;;17.00;8.40;;;;;;;9.12;100.00;99598.52;106091;1254;71350;-81
2024/03/24 05:18:11;;;;;;;15.40;8.60;;;;;;;9.13;100.00;99595.79;105986;1257;61289;-81
2024/03/24 05:20:39;;;;;;;13.80;8.50;;;;;;;9.18;100.00;99597.31;105889;1257;61366;-81
2024/03/24 05:23:06;;;;;;;15.60;7.90;;;;;;;9.21;100.00;99591.00;105952;1253;73261;-80
2024/03/24 05:25:39;;;;;;;15.00;8.20;;;;;;;9.27;100.00;99594.70;107443;1253;69692;-81
2024/03/24 05:28:06;;;;;;;14.80;7.80;;;;;;;9.27;100.00;99589.89;105882;1254;72495;-80
2024/03/24 05:30:34;;;;;;;14.30;7.40;;;;;;;9.34;100.00;99586.36;105882;1257;61375;-81
2024/03/24 05:33:02;;;;;;;13.10;7.60;;;;;;;9.41;100.00;99583.83;105882;1254;61997;-81
2024/03/24 05:35:29;;;;;;;14.20;7.70;;;;;;;9.43;100.00;99585.01;105760;1253;73381;-80
2024/03/24 05:37:57;;;;;;;16.90;8.40;;;;;;;9.49;100.00;99574.29;106376;1254;69144;-81
2024/03/24 05:40:24;;;;;;;14.10;7.90;;;;;;;9.56;100.00;99567.77;105863;1253;71725;-80
2024/03/24 05:42:53;;;;;;;13.10;7.40;;;;;;;9.62;100.00;99567.58;105910;1254;61692;-81
2024/03/24 05:45:21;;;;;;;18.30;7.80;;;;;;;9.70;100.00;99560.26;105800;1259;61164;-81
2024/03/24 05:47:49;;;;;;;13.70;7.90;;;;;;;9.77;100.00;99568.49;105802;1254;74619;-81
2024/03/24 05:50:16;;;;;;;13.50;8.10;;;;;;;9.87;100.00;99561.04;105742;1259;67173;-81
2024/03/24 05:52:44;;;;;;;16.20;7.70;;;;;;;9.96;100.00;99557.30;106727;1259;71392;-81
2024/03/24 05:55:15;;;;;;;12.20;7.00;;;;;;;10.04;100.00;99560.11;105937;1259;61448;-81
2024/03/24 05:57:43;;;;;;;14.60;8.00;;;;;;;10.13;100.00;99556.55;105810;1259;61301;-81
2024/03/24 06:00:11;;;;;;;14.10;7.20;;;;;;;10.22;100.00;99556.39;105869;1264;74655;-80
2024/03/24 06:08:02;;;;;;;15.80;7.80;;;;;;;10.59;100.00;99554.36;102709;1293;603025;-81
2024/03/24 06:10:30;;;;;;;14.50;7.70;;;;;;;10.69;100.00;99560.25;105007;1272;61857;-81
2024/03/24 06:12:57;;;;;;;12.40;6.70;;;;;;;10.79;100.00;99562.16;104930;1269;60020;-81
2024/03/24 06:15:25;;;;;;;16.40;7.60;;;;;;;10.94;100.00;99555.67;105039;1270;72836;-81
2024/03/24 06:17:53;;;;;;;13.60;6.80;;;;;;;11.04;100.00;99556.33;104965;1267;68305;-81
2024/03/24 06:20:21;;;;;;;12.50;7.10;;;;;;;11.14;100.00;99561.19;104715;1272;220036;-80
2024/03/24 06:22:49;;;;;;;12.50;6.70;;;;;;;11.22;100.00;99563.19;105599;1269;59566;-80
2024/03/24 06:25:17;;;;;;;13.50;8.10;;;;;;;11.27;100.00;99562.66;105125;1269;59675;-80
2024/03/24 06:27:44;;;;;;;14.30;6.80;;;;;;;11.32;100.00;99563.43;105161;1267;71800;-79
2024/03/24 06:30:13;;;;;;;14.80;7.40;;;;;;;11.36;100.00;99559.94;105034;1267;68378;-81
2024/03/24 06:32:41;;;;;;;12.60;7.20;;;;;;;11.39;100.00;99559.05;105102;1267;74176;-81
2024/03/24 06:35:11;;;;;;;11.20;6.90;;;;;;;11.39;100.00;99555.23;105088;1267;61080;-80
2024/03/24 06:37:44;;;;;;;12.40;7.10;;;;;;;11.38;100.00;99555.80;105430;1265;60347;-82
2024/03/24 06:40:12;;;;;;;13.90;7.20;;;;;;;11.42;100.00;99554.30;105368;1269;72619;-82
2024/03/24 06:42:59;;;;;;;11.80;6.60;;;;;;;11.47;100.00;99554.84;105334;1269;67155;-81
2024/03/24 06:45:30;;;;;;;10.30;6.50;;;;;;;11.47;100.00;99553.20;105125;1269;71463;-82
2024/03/24 06:48:00;;;;;;;12.60;6.60;;;;;;;11.47;100.00;99552.05;105031;1269;60449;-81
2024/03/24 06:50:27;;;;;;;12.90;6.70;;;;;;;11.50;100.00;99552.14;105100;1270;60378;-82
2024/03/24 06:52:56;;;;;;;12.20;7.30;;;;;;;11.49;100.00;99551.84;104996;1269;73964;-81
2024/03/24 06:55:24;;;;;;;12.10;7.00;;;;;;;11.50;100.00;99549.96;106602;1265;68424;-81
2024/03/24 06:57:52;;;;;;;11.20;6.40;;;;;;;11.48;100.00;99549.23;105914;1266;73074;-80
2024/03/24 07:00:20;;;;;;;12.20;6.60;;;;;;;11.52;100.00;99540.71;105039;1267;61115;-80
2024/03/24 07:02:48;;;;;;;13.60;7.00;;;;;;;11.54;100.00;99536.99;105129;1267;60571;-80
2024/03/24 07:05:16;;;;;;;10.80;6.30;;;;;;;11.57;100.00;99527.79;104974;1265;73817;-80
2024/03/24 07:07:44;;;;;;;12.20;7.30;;;;;;;11.59;100.00;99528.97;105724;1269;67645;-80
2024/03/24 07:10:12;;;;;;;12.50;6.80;;;;;;;11.61;100.00;99531.20;105412;1267;72676;-79
2024/03/24 07:12:39;;;;;;;13.60;6.80;;;;;;;11.60;100.00;99533.03;105292;1269;60372;-80
2024/03/24 07:15:08;;;;;;;10.30;5.70;;;;;;;11.56;100.00;99535.48;105104;1269;60595;-80
2024/03/24 07:17:35;;;;;;;11.10;6.40;;;;;;;11.67;100.00;99534.80;105262;1266;73864;-80
2024/03/24 07:20:04;;;;;;;10.60;5.80;;;;;;;11.80;100.00;99530.45;105699;1267;69439;-80
2024/03/24 07:22:31;;;;;;;10.70;5.90;;;;;;;11.86;100.00;99536.99;105183;1271;73181;-80
2024/03/24 07:24:59;;;;;;;11.60;6.60;;;;;;;11.94;100.00;99533.50;105031;1272;60578;-80
2024/03/24 07:27:27;;;;;;;10.00;6.40;;;;;;;11.98;100.00;99531.59;105074;1267;60450;-80
2024/03/24 07:29:54;;;;;;;11.60;7.00;;;;;;;12.13;100.00;99530.41;105076;1270;73880;-80
2024/03/24 07:32:22;;;;;;;11.30;6.90;;;;;;;12.28;100.00;99528.31;105128;1270;70011;-80
2024/03/24 07:34:50;;;;;;;13.50;6.90;;;;;;;12.44;100.00;99526.31;105569;1270;73868;-80
2024/03/24 07:37:19;;;;;;;11.00;6.40;;;;;;;12.60;100.00;99522.61;105092;1269;62033;-80
2024/03/24 07:39:47;;;;;;;13.90;6.90;;;;;;;12.74;100.00;99527.87;105145;1266;61143;-80
2024/03/24 07:42:14;;;;;;;10.90;6.30;;;;;;;12.90;100.00;99513.99;105225;1269;74985;-80
2024/03/24 07:44:42;;;;;;;11.50;6.10;;;;;;;13.07;100.00;99509.02;105118;1269;71977;-80
2024/03/24 07:47:10;;;;;;;10.10;5.60;;;;;;;13.23;100.00;99506.64;105408;1267;75005;-80
2024/03/24 07:49:37;;;;;;;9.20;5.70;;;;;;;13.40;100.00;99498.52;105454;1264;61035;-81
2024/03/24 07:52:09;;;;;;;10.80;6.40;;;;;;;13.60;100.00;99494.89;105419;1269;60772;-75
2024/03/24 07:54:36;;;;;;;9.80;5.60;;;;;;;13.74;100.00;99491.52;105425;1267;73866;-80
2024/03/24 07:57:04;;;;;;;11.70;5.80;;;;;;;13.85;100.00;99486.80;105636;1267;71120;-80
2024/03/24 07:59:32;;;;;;;12.80;6.10;;;;;;;13.94;100.00;99477.96;105413;1263;73804;-76
2024/03/24 08:01:59;;;;;;;9.60;5.80;;;;;;;13.97;100.00;99472.15;105412;1269;60661;-75
2024/03/24 08:04:27;;;;;;;10.80;5.70;;;;;;;14.01;100.00;99473.54;105418;1269;61107;-75
2024/03/24 08:06:54;;;;;;;9.10;5.60;;;;;;;14.09;100.00;99471.71;105440;1266;72636;-76
2024/03/24 08:09:24;;;;;;;10.00;5.60;;;;;;;14.25;100.00;99471.60;106351;1267;69651;-75
2024/03/24 08:11:51;;;;;;;9.70;5.50;;;;;;;14.39;98.46;99467.55;105773;1264;72707;-76
2024/03/24 08:14:19;;;;;;;11.50;5.30;;;;;;;14.47;93.74;99470.30;105327;1264;62459;-76
2024/03/24 08:16:47;;;;;;;7.10;4.90;;;;;;;14.48;92.68;99464.38;105530;1265;61152;-76
2024/03/24 08:19:14;;;;;;;8.00;4.70;;;;;;;14.55;90.86;99467.84;106929;1262;73844;-76
2024/03/24 08:21:43;;;;;;;8.30;4.60;;;;;;;14.57;89.55;99473.42;105993;1268;70024;-76
2024/03/24 08:24:12;;;;;;;7.10;4.10;;;;;;;14.60;89.17;99471.98;105228;1266;71082;-75
2024/03/24 08:26:40;;;;;;;9.50;4.40;;;;;;;14.66;88.41;99473.32;105251;1266;60467;-76
2024/03/24 08:29:07;;;;;;;12.70;4.80;;;;;;;14.69;88.12;99475.09;105800;1264;60486;-80
2024/03/24 08:31:35;;;;;;;9.80;4.30;;;;;;;14.72;88.16;99479.94;105426;1264;73814;-80
2024/03/24 08:34:03;;;;;;;7.90;4.90;;;;;;;14.77;86.70;99482.20;106235;1263;67665;-81
2024/03/24 08:36:30;;;;;;;8.50;4.80;;;;;;;14.83;87.67;99479.95;105436;1276;71721;-81
2024/03/24 08:38:59;;;;;;;10.80;4.30;;;;;;;14.92;88.30;99479.95;105292;1267;61921;-81
2024/03/24 08:41:27;;;;;;;7.90;4.40;;;;;;;15.02;85.39;99477.48;105357;1266;61912;-75
2024/03/24 08:43:55;;;;;;;7.30;4.30;;;;;;;15.10;84.70;99475.78;105511;1267;74951;-75
2024/03/24 08:46:25;;;;;;;8.70;4.20;;;;;;;15.12;84.68;99478.39;105477;1267;69532;-76
2024/03/24 08:48:53;;;;;;;5.60;4.20;;;;;;;15.20;83.58;99474.94;105309;1264;74939;-81
2024/03/24 08:51:21;;;;;;;6.70;4.40;;;;;;;15.30;82.24;99465.38;105460;1265;61200;-76
2024/03/24 08:53:48;;;;;;;7.10;4.30;;;;;;;15.44;81.30;99465.06;105297;1264;62265;-76
2024/03/24 08:56:16;;;;;;;6.70;3.60;;;;;;;15.56;81.06;99462.37;105353;1262;76259;-76
2024/03/24 08:58:43;;;;;;;7.70;4.30;;;;;;;15.73;82.27;99456.02;105417;1266;70671;-81
2024/03/24 09:01:11;;;;;;;5.40;3.80;;;;;;;15.89;80.59;99441.61;105401;1266;75708;-76
2024/03/24 09:03:39;;;;;;;8.30;3.90;;;;;;;16.06;81.98;99438.76;105482;1268;61390;-76
2024/03/24 09:06:06;;;;;;;6.10;3.80;;;;;;;16.28;80.44;99433.13;105537;1264;62414;-76
2024/03/24 09:08:34;;;;;;;6.40;4.20;;;;;;;16.46;75.83;99429.56;106400;1263;74088;-80
2024/03/24 09:11:03;;;;;;;7.30;4.00;;;;;;;16.50;73.19;99423.39;105681;1266;70684;-80
2024/03/24 09:13:31;;;;;;;8.80;4.50;;;;;;;16.52;73.36;99418.59;105265;1267;72755;-80
2024/03/24 09:15:58;;;;;;;6.70;4.00;;;;;;;16.57;73.24;99414.09;105466;1264;60485;-76
2024/03/24 09:18:26;;;;;;;6.50;3.80;;;;;;;16.62;72.85;99407.77;105361;1266;60895;-80
2024/03/24 09:20:56;;;;;;;7.60;3.90;;;;;;;16.70;73.48;99400.02;105635;1266;75070;-76
2024/03/24 09:23:24;;;;;;;8.50;4.30;;;;;;;16.84;73.61;99393.05;105405;1267;68767;-78
2024/03/24 09:25:52;;;;;;;8.30;3.80;;;;;;;16.98;70.05;99382.38;105311;1263;74719;-76
2024/03/24 09:28:20;;;;;;;5.80;3.60;;;;;;;17.07;67.32;99377.83;105363;1268;61023;-81
2024/03/24 09:31:14;;;;;;;7.20;3.80;;;;;;;17.16;65.59;99376.21;105371;1267;60449;-81
2024/03/24 09:33:42;;;;;;;8.50;4.00;;;;;;;17.34;66.87;99375.52;105478;1264;74741;-76
2024/03/24 09:36:15;;;;;;;8.00;3.70;;;;;;;17.54;65.29;99375.70;105381;1266;68407;-76
2024/03/24 09:38:42;;;;;;;6.80;4.30;;;;;;;17.78;63.97;99381.23;105351;1264;74949;-76
2024/03/24 09:41:10;;;;;;;7.70;3.80;;;;;;;17.97;63.27;99373.64;105462;1263;62169;-81
2024/03/24 09:43:38;;;;;;;6.10;3.30;;;;;;;18.11;61.89;99377.15;105471;1269;61327;-76
2024/03/24 09:46:05;;;;;;;8.30;3.60;;;;;;;18.20;58.79;99379.27;105933;1264;76601;-81
2024/03/24 09:48:33;;;;;;;7.00;3.60;;;;;;;18.19;57.45;99380.83;105499;1264;71139;-76
2024/03/24 09:51:02;;;;;;;5.20;3.70;;;;;;;18.27;57.47;99382.77;105451;1267;74840;-76
2024/03/24 09:53:30;;;;;;;5.50;3.70;;;;;;;18.32;55.77;99377.60;105380;1263;60539;-81
2024/03/24 09:55:58;;;;;;;6.30;3.50;;;;;;;18.32;55.63;99372.31;105586;1267;62730;-76
2024/03/24 09:58:26;;;;;;;7.50;3.50;;;;;;;18.31;54.89;99367.45;105696;1264;73879;-76
2024/03/24 10:00:54;;;;;;;7.00;3.70;;;;;;;18.42;56.17;99354.08;105317;1269;69043;-76
2024/03/24 10:03:21;;;;;;;6.60;3.70;;;;;;;18.54;54.88;99353.54;105273;1267;73368;-80
2024/03/24 10:05:50;;;;;;;9.40;3.70;;;;;;;18.58;54.04;99343.43;105302;1269;61283;-76
2024/03/24 10:08:18;;;;;;;4.90;3.00;;;;;;;18.61;53.91;99339.24;105219;1264;62296;-76
2024/03/24 10:10:46;;;;;;;6.90;3.50;;;;;;;18.65;54.11;99337.07;105398;1266;74180;-76
2024/03/24 10:13:13;;;;;;;5.20;3.30;;;;;;;18.76;53.60;99334.39;105455;1267;71146;-77
2024/03/24 10:15:41;;;;;;;5.80;3.70;;;;;;;18.92;53.14;99333.89;105346;1267;72783;-76
2024/03/24 10:18:09;;;;;;;5.90;3.50;;;;;;;19.05;52.64;99336.77;105302;1264;62277;-77
2024/03/24 10:20:38;;;;;;;6.40;3.20;;;;;;;19.11;52.04;99337.20;105220;1269;61376;-80
2024/03/24 10:23:05;;;;;;;5.70;3.60;;;;;;;19.09;51.36;99340.73;105509;1267;77132;-77
2024/03/24 10:25:33;;;;;;;4.70;3.20;;;;;;;19.09;51.26;99344.98;105470;1264;70011;-76
2024/03/24 10:28:01;;;;;;;5.20;3.10;;;;;;;19.08;51.30;99335.89;105322;1266;74851;-81
2024/03/24 10:30:29;;;;;;;5.00;3.00;;;;;;;19.06;51.89;99329.83;105368;1264;61359;-81
2024/03/24 10:32:56;;;;;;;5.60;2.80;;;;;;;19.07;52.43;99328.02;105312;1264;61250;-77
2024/03/24 10:35:24;;;;;;;4.70;2.70;;;;;;;19.12;52.44;99325.92;105256;1264;75736;-80
2024/03/24 10:37:52;;;;;;;6.20;3.20;;;;;;;19.15;52.33;99322.27;105416;1266;68537;-81
2024/03/24 10:40:21;;;;;;;8.00;3.30;;;;;;;19.17;51.90;99322.69;105593;1264;74604;-81
2024/03/24 10:42:52;;;;;;;5.00;3.00;;;;;;;19.11;51.85;99329.30;105326;1263;61826;-80
2024/03/24 10:45:24;;;;;;;7.00;3.00;;;;;;;18.98;51.85;99325.05;106674;1263;61230;-77
2024/03/24 10:47:59;;;;;;;5.00;3.40;;;;;;;18.86;52.17;99326.33;106381;1266;75824;-76
2024/03/24 10:50:27;;;;;;;7.30;3.40;;;;;;;18.79;52.09;99325.14;105427;1267;70675;-82
2024/03/24 10:52:59;;;;;;;6.20;3.60;;;;;;;18.68;52.49;99325.57;106015;1263;74254;-76
2024/03/24 10:55:28;;;;;;;6.80;3.70;;;;;;;18.67;51.97;99315.20;105992;1263;61187;-76
2024/03/24 10:57:56;;;;;;;7.60;3.30;;;;;;;18.63;52.46;99314.25;105494;1267;61380;-81
2024/03/24 11:00:28;;;;;;;6.90;3.60;;;;;;;18.58;52.66;99313.50;105514;1262;76003;-81
2024/03/24 11:02:56;;;;;;;6.40;3.40;;;;;;;18.57;52.58;99307.54;105505;1263;71196;-76
2024/03/24 11:05:24;;;;;;;6.10;3.80;;;;;;;18.54;53.29;99312.21;105432;1264;73521;-80
2024/03/24 11:07:52;;;;;;;10.20;3.60;;;;;;;18.48;53.32;99300.55;105213;1267;61266;-80
2024/03/24 11:10:20;;;;;;;6.00;3.10;;;;;;;18.44;53.57;99306.38;105699;1264;61381;-77
2024/03/24 11:12:48;;;;;;;7.70;3.40;;;;;;;18.44;54.22;99301.24;105259;1264;76617;-76
2024/03/24 11:15:17;;;;;;;4.80;3.00;;;;;;;18.48;53.88;99304.48;105328;1264;70810;-81
2024/03/24 11:17:48;;;;;;;6.80;3.30;;;;;;;18.46;53.91;99305.48;105358;1263;74852;-76
2024/03/24 11:20:16;;;;;;;7.30;3.40;;;;;;;18.43;54.23;99304.63;105709;1263;61365;-76
2024/03/24 11:22:45;;;;;;;8.10;3.60;;;;;;;18.42;54.14;99309.34;105396;1264;62404;-76
2024/03/24 11:25:13;;;;;;;8.40;3.70;;;;;;;18.31;53.79;99310.73;105596;1263;76654;-81
2024/03/24 11:27:44;;;;;;;4.70;2.50;;;;;;;18.20;54.78;99315.94;105424;1262;70739;-81